Time;durP1;ratioP1;P1;durP2;ratioP2;P2;SDS_P1;SDS_P2;PMS_P1;PMS_P2;Temp;Humidity;BMP_temperature;BMP_pressure;BME280_temperature;BME280_humidity;BME280_pressure;Samples;Min_cycle;Max_cycle;Signal;HPM_P1;HPM_P2
2022/01/10 00:00:36;;;;;;;;;;;2.50;99.90;;;2.07;100.00;99993.22;4929074;29;19927;-79
2022/01/10 00:03:04;;;;;;;;;;;6.00;99.90;;;2.07;100.00;99990.63;4929285;29;20620;-79
2022/01/10 00:05:32;;;;;;;;;;;4.30;99.90;;;2.11;100.00;99992.41;4945792;29;19930;-78
2022/01/10 00:08:02;;;;;;;;;;;2.30;99.90;;;2.20;100.00;99997.63;4929056;29;19930;-77
2022/01/10 00:10:29;;;;;;;;;;;5.30;99.90;;;2.16;100.00;100002.78;4929799;29;20350;-77
2022/01/10 00:12:55;;;;;;;;;;;2.60;99.90;;;2.09;100.00;99997.56;4928991;29;19931;-77
2022/01/10 00:15:23;;;;;;;;;;;2.50;99.90;;;2.02;100.00;100000.97;4961200;28;19938;-78
2022/01/10 00:17:50;;;;;;;;;;;2.70;99.90;;;2.05;100.00;100005.34;4977421;28;20484;-78
2022/01/10 00:20:20;;;;;;;;;;;5.80;99.90;;;2.01;100.00;100021.75;4977407;28;19941;-77
2022/01/10 00:22:49;;;;;;;;;;;5.10;99.90;;;1.98;100.00;100015.69;4960055;28;19964;-78
2022/01/10 00:25:34;;;;;;;;;;;5.70;99.90;;;1.98;100.00;100010.50;4946680;28;20303;-77
2022/01/10 00:28:01;;;;;;;;;;;2.80;99.90;;;1.98;100.00;100005.31;4946667;28;19930;-77
2022/01/10 00:30:27;;;;;;;;;;;4.90;99.90;;;2.03;100.00;100023.50;4976949;28;19935;-78
2022/01/10 00:32:54;;;;;;;;;;;2.50;99.90;;;2.08;100.00;100020.91;4944207;28;19939;-77
2022/01/10 00:35:21;;;;;;;;;;;4.00;99.90;;;2.08;100.00;100013.13;4976470;28;19937;-77
2022/01/10 00:37:49;;;;;;;;;;;2.70;99.90;;;2.07;100.00;100020.06;4963044;28;19936;-78
2022/01/10 00:40:17;;;;;;;;;;;6.10;99.90;;;2.08;100.00;100016.59;4948705;28;20359;-77
2022/01/10 00:42:52;;;;;;;;;;;3.80;99.90;;;2.15;100.00;100021.81;4964345;28;19931;-77
2022/01/10 00:45:23;;;;;;;;;;;2.70;99.90;;;2.20;100.00;100039.16;4962122;28;19931;-78
2022/01/10 00:47:50;;;;;;;;;;;5.20;99.90;;;2.12;100.00;100031.31;4952939;29;20026;-79
2022/01/10 00:50:18;;;;;;;;;;;5.40;99.90;;;2.15;100.00;100038.28;4968685;28;19938;-77
2022/01/10 00:52:45;;;;;;;;;;;3.80;99.90;;;2.20;100.00;100044.34;4947787;28;19936;-78
2022/01/10 00:55:12;;;;;;;;;;;2.50;99.90;;;2.14;100.00;100046.91;4965951;28;19950;-76
2022/01/10 00:57:40;;;;;;;;;;;2.60;99.90;;;2.17;100.00;100062.50;4952142;28;20316;-77
2022/01/10 01:00:09;;;;;;;;;;;4.00;99.90;;;2.21;100.00;100048.66;4948694;28;19931;-78
2022/01/10 01:02:36;;;;;;;;;;;2.40;99.90;;;2.11;100.00;100065.94;4962959;28;19938;-78
2022/01/10 01:05:06;;;;;;;;;;;2.70;99.90;;;2.02;100.00;100063.25;4947507;28;19935;-76
2022/01/10 01:07:34;;;;;;;;;;;2.80;99.90;;;2.09;100.00;100066.78;4963252;28;19970;-77
2022/01/10 01:13:08;;;;;;;;;;;2.50;99.90;;;2.16;100.00;100078.94;4946865;28;19945;-76
2022/01/10 01:15:47;;;;;;;;;;;4.50;99.90;;;2.13;100.00;100082.38;4934672;29;19931;-78
2022/01/10 01:18:32;;;;;;;;;;;2.40;99.90;;;2.19;100.00;100088.47;4934050;29;19966;-79
2022/01/10 01:26:26;;;;;;;;;;;1.20;99.90;;;2.10;100.00;100095.34;4951319;28;20535;-82
2022/01/10 01:28:53;;;;;;;;;;;2.50;99.90;;;2.07;100.00;100092.72;4966462;28;19930;-80
2022/01/10 01:31:21;;;;;;;;;;;2.70;99.90;;;2.22;100.00;100106.66;4950766;28;19931;-80
2022/01/10 01:33:48;;;;;;;;;;;2.60;99.90;;;2.23;100.00;100113.59;4949507;28;19930;-81
2022/01/10 01:36:22;;;;;;;;;;;5.70;99.90;;;2.27;100.00;100123.13;4943516;28;19930;-78
2022/01/10 01:38:51;;;;;;;;;;;2.60;99.90;;;2.32;100.00;100113.63;4933173;29;19926;-79
2022/01/10 01:43:46;;;;;;;;;;;2.50;99.90;;;2.38;100.00;100128.38;4929654;29;19933;-79
2022/01/10 01:46:13;;;;;;;;;;;4.90;99.90;;;2.36;100.00;100127.50;4931001;29;19930;-79
2022/01/10 01:48:41;;;;;;;;;;;2.60;99.90;;;2.36;100.00;100131.00;4930402;29;19930;-79
2022/01/10 01:51:08;;;;;;;;;;;2.80;99.90;;;2.35;100.00;100133.56;4915294;29;19973;-80
2022/01/10 01:53:38;;;;;;;;;;;2.60;99.90;;;2.29;100.00;100130.94;4945412;28;19930;-80
2022/01/10 01:56:07;;;;;;;;;;;2.70;99.90;;;2.30;100.00;100133.53;4930347;29;19930;-79
2022/01/10 01:58:36;;;;;;;;;;;2.90;99.90;;;2.32;100.00;100138.75;4930732;29;19937;-80
2022/01/10 02:01:06;;;;;;;;;;;2.60;99.90;;;2.34;100.00;100137.03;4930342;29;20793;-79
2022/01/10 02:03:37;;;;;;;;;;;6.00;99.90;;;2.34;100.00;100137.91;4945051;28;19980;-80
2022/01/10 02:06:05;;;;;;;;;;;2.80;99.90;;;2.33;100.00;100140.47;4931847;29;19931;-79
2022/01/10 02:08:36;;;;;;;;;;;5.20;99.90;;;2.36;100.00;100150.88;4932173;29;19930;-83
2022/01/10 02:11:06;;;;;;;;;;;2.70;99.90;;;2.31;100.00;100160.38;4932204;29;19958;-79
2022/01/10 02:13:33;;;;;;;;;;;5.90;99.90;;;2.34;100.00;100157.78;4929079;29;19941;-83
2022/01/10 02:16:09;;;;;;;;;;;2.60;99.90;;;2.34;100.00;100168.19;4931588;29;19934;-80
2022/01/10 02:18:39;;;;;;;;;;;6.40;99.90;;;2.32;100.00;100170.75;4931374;29;19931;-77
2022/01/10 02:21:06;;;;;;;;;;;3.80;99.90;;;2.34;100.00;100174.25;4929569;29;19956;-77
2022/01/10 02:23:35;;;;;;;;;;;4.40;99.90;;;2.23;100.00;100168.97;4928942;29;20021;-78
2022/01/10 02:26:22;;;;;;;;;;;6.00;99.90;;;2.21;100.00;100182.81;4946433;28;20025;-78
2022/01/10 02:28:49;;;;;;;;;;;2.90;99.90;;;2.25;100.00;100184.56;4930558;29;19934;-77
2022/01/10 02:31:18;;;;;;;;;;;3.70;99.90;;;2.28;100.00;100194.13;4946284;29;19934;-78
2022/01/10 02:33:47;;;;;;;;;;;2.60;99.90;;;2.30;100.00;100190.66;4929090;29;20035;-77
2022/01/10 02:36:24;;;;;;;;;;;4.10;99.90;;;2.28;100.00;100189.78;4945719;28;19931;-78
2022/01/10 02:38:57;;;;;;;;;;;2.60;99.90;;;2.34;100.00;100194.16;4932570;29;19962;-78
2022/01/10 02:41:30;;;;;;;;;;;3.00;99.90;;;2.31;100.00;100200.19;4930572;29;19981;-78
2022/01/10 02:44:00;;;;;;;;;;;4.40;99.90;;;2.37;100.00;100200.25;4913328;29;19927;-78
2022/01/10 02:46:32;;;;;;;;;;;2.90;99.90;;;2.38;100.00;100194.19;4929854;28;19977;-76
2022/01/10 02:49:07;;;;;;;;;;;2.80;99.90;;;2.38;100.00;100198.50;4945228;29;19980;-79
2022/01/10 02:51:34;;;;;;;;;;;2.80;99.90;;;2.38;100.00;100211.47;4929434;29;19930;-80
2022/01/10 02:54:01;;;;;;;;;;;5.90;99.90;;;2.35;100.00;100214.94;4927355;28;20029;-80
2022/01/10 02:56:28;;;;;;;;;;;2.70;99.90;;;2.33;100.00;100213.19;4945782;28;19934;-81
2022/01/10 02:58:55;;;;;;;;;;;5.70;99.90;;;2.28;100.00;100210.53;4928179;28;20382;-78
2022/01/10 03:01:22;;;;;;;;;;;2.80;99.90;;;2.35;100.00;100214.06;4928617;29;20453;-81
2022/01/10 03:03:49;;;;;;;;;;;2.70;99.90;;;2.39;100.00;100221.00;4912070;29;20379;-79
2022/01/10 03:06:16;;;;;;;;;;;3.00;99.90;;;2.36;100.00;100218.38;4943576;28;19930;-81
2022/01/10 03:08:43;;;;;;;;;;;2.80;99.90;;;2.37;100.00;100225.31;4944029;28;19938;-79
2022/01/10 03:11:10;;;;;;;;;;;6.00;99.90;;;2.37;100.00;100226.22;4930218;29;19930;-80
2022/01/10 03:13:37;;;;;;;;;;;2.70;99.90;;;2.37;100.00;100233.13;4928396;29;19935;-80
2022/01/10 03:16:04;;;;;;;;;;;5.80;99.90;;;2.34;100.00;100235.69;4945205;29;20557;-79
2022/01/10 03:18:31;;;;;;;;;;;2.60;99.90;;;2.35;100.00;100248.69;4930813;29;20375;-79
2022/01/10 03:20:58;;;;;;;;;;;1.50;99.90;;;2.35;100.00;100248.69;4932526;28;19935;-79
2022/01/10 03:23:25;;;;;;;;;;;2.60;99.90;;;2.36;100.00;100249.56;4932429;29;20376;-80
2022/01/10 03:25:52;;;;;;;;;;;5.00;99.90;;;2.39;100.00;100254.75;4917278;29;19961;-79
2022/01/10 03:28:19;;;;;;;;;;;2.80;99.90;;;2.35;100.00;100255.59;4949258;28;19931;-79
2022/01/10 03:30:46;;;;;;;;;;;2.90;99.90;;;2.35;100.00;100266.88;4937184;29;20565;-79
2022/01/10 03:33:16;;;;;;;;;;;2.80;99.90;;;2.30;100.00;100267.69;4947965;28;19930;-78
2022/01/10 03:35:43;;;;;;;;;;;4.00;99.90;;;2.28;100.00;100272.00;4955787;28;19930;-79
2022/01/10 03:38:14;;;;;;;;;;;5.00;99.90;;;2.28;100.00;100278.06;4956825;28;20049;-79
2022/01/10 03:40:41;;;;;;;;;;;4.60;99.90;;;2.29;100.00;100281.53;4956016;28;19926;-79
2022/01/10 03:43:14;;;;;;;;;;;5.60;99.90;;;2.30;100.00;100280.69;4940527;28;19930;-78
2022/01/10 03:45:41;;;;;;;;;;;2.60;99.90;;;2.33;100.00;100289.34;4952691;28;20021;-79
2022/01/10 03:48:08;;;;;;;;;;;4.70;99.90;;;2.31;100.00;100285.84;4968902;28;19944;-79
2022/01/10 03:50:35;;;;;;;;;;;4.10;99.90;;;2.32;100.00;100291.94;4955035;28;19940;-79
2022/01/10 03:53:03;;;;;;;;;;;2.80;99.90;;;2.30;100.00;100299.69;4937528;28;19927;-79
2022/01/10 03:55:30;;;;;;;;;;;4.30;99.90;;;2.29;100.00;100295.38;4929269;29;19930;-77
2022/01/10 03:58:00;;;;;;;;;;;2.70;99.90;;;2.31;100.00;100300.59;4928897;29;20057;-78
2022/01/10 04:00:26;;;;;;;;;;;5.60;99.90;;;2.28;100.00;100305.75;4945940;28;19930;-77
2022/01/10 04:02:59;;;;;;;;;;;2.80;99.90;;;2.25;100.00;100306.59;4928156;29;20053;-77
2022/01/10 04:05:34;;;;;;;;;;;5.30;99.90;;;2.28;100.00;100310.94;4929621;29;20756;-77
2022/01/10 04:08:01;;;;;;;;;;;2.80;99.90;;;2.32;100.00;100315.31;4927908;29;19970;-77
2022/01/10 04:10:29;;;;;;;;;;;2.80;99.90;;;2.25;100.00;100311.78;4928486;29;20001;-78
2022/01/10 04:12:56;;;;;;;;;;;2.60;99.90;;;2.31;100.00;100314.44;4924411;28;20522;-78
2022/01/10 04:15:25;;;;;;;;;;;4.30;99.90;;;2.33;100.00;100309.25;4908718;29;19938;-78
2022/01/10 04:17:56;;;;;;;;;;;2.60;99.90;;;2.34;100.00;100324.88;4926427;29;20375;-78
2022/01/10 04:20:24;;;;;;;;;;;4.50;99.90;;;2.32;100.00;100321.34;4925382;28;19938;-76
2022/01/10 04:22:52;;;;;;;;;;;2.80;99.90;;;2.32;100.00;100323.09;4924721;29;19941;-77
2022/01/10 04:25:19;;;;;;;;;;;3.00;99.90;;;2.32;100.00;100325.69;4924795;29;20025;-78
2022/01/10 04:27:46;;;;;;;;;;;2.70;99.90;;;2.34;100.00;100334.38;4924793;29;19931;-77
2022/01/10 04:30:20;;;;;;;;;;;2.80;99.90;;;2.33;100.00;100343.00;4926272;29;19931;-78
2022/01/10 04:32:48;;;;;;;;;;;5.40;99.90;;;2.32;100.00;100346.47;4924146;28;19941;-77
2022/01/10 04:35:15;;;;;;;;;;;2.70;99.90;;;2.29;100.00;100341.25;4924084;29;20424;-78
2022/01/10 04:37:42;;;;;;;;;;;2.90;99.90;;;2.26;100.00;100347.28;4911326;29;19961;-79
2022/01/10 04:40:10;;;;;;;;;;;2.70;99.90;;;2.25;100.00;100348.97;4931754;29;19931;-80
2022/01/10 04:42:37;;;;;;;;;;;2.60;99.90;;;2.31;100.00;100349.91;4931516;29;19930;-79
2022/01/10 04:45:05;;;;;;;;;;;5.00;99.90;;;2.32;100.00;100347.31;4915434;29;19931;-79
2022/01/10 04:47:32;;;;;;;;;;;2.80;99.90;;;2.37;100.00;100357.75;4924422;29;19959;-78
2022/01/10 04:53:05;;;;;;;;;;;2.70;99.90;;;2.39;100.00;100366.44;4994523;28;19930;-77
2022/01/10 04:55:32;;;;;;;;;;;3.00;99.90;;;2.33;100.00;100374.16;4983705;28;20671;-77
2022/01/10 04:57:59;;;;;;;;;;;4.20;99.90;;;2.32;100.00;100377.63;4966196;28;20586;-77
2022/01/10 05:00:26;;;;;;;;;;;3.00;99.90;;;2.33;100.00;100376.78;4991775;28;19938;-80
2022/01/10 05:02:53;;;;;;;;;;;4.70;99.90;;;2.25;100.00;100377.53;4907683;29;19931;-81
2022/01/10 05:05:21;;;;;;;;;;;2.80;99.90;;;2.26;100.00;100387.09;4927035;29;20545;-79
2022/01/10 05:07:48;;;;;;;;;;;2.70;99.90;;;2.37;100.00;100388.91;4925854;29;20471;-79
2022/01/10 05:10:17;;;;;;;;;;;2.80;99.90;;;2.38;100.00;100390.66;4926801;28;19930;-80
2022/01/10 05:12:45;;;;;;;;;;;3.00;99.90;;;2.37;100.00;100397.59;4931035;29;19931;-82
2022/01/10 05:15:12;;;;;;;;;;;4.80;99.90;;;2.43;100.00;100401.97;4915773;29;19960;-78
2022/01/10 05:17:39;;;;;;;;;;;4.80;99.90;;;2.44;100.00;100405.44;4927326;29;20391;-79
2022/01/10 05:20:08;;;;;;;;;;;6.00;99.90;;;2.39;100.00;100402.78;4928908;29;19937;-79
2022/01/10 05:22:35;;;;;;;;;;;2.80;99.90;;;2.45;100.00;100418.44;4931042;28;19930;-81
2022/01/10 05:25:03;;;;;;;;;;;5.30;99.90;;;2.40;100.00;100422.69;4930650;29;19966;-78
2022/01/10 05:27:31;;;;;;;;;;;2.90;99.90;;;2.48;100.00;100431.47;4932471;29;19930;-78
2022/01/10 05:30:03;;;;;;;;;;;3.00;99.90;;;2.52;100.00;100433.22;4946381;28;19930;-76
2022/01/10 05:32:31;;;;;;;;;;;3.00;99.90;;;2.53;100.00;100440.16;4945184;28;20091;-78
2022/01/10 05:35:05;;;;;;;;;;;2.90;99.90;;;2.55;100.00;100448.84;4916618;29;19926;-77
2022/01/10 05:37:32;;;;;;;;;;;4.60;99.90;;;2.57;100.00;100450.56;4927495;28;19938;-77
2022/01/10 05:39:58;;;;;;;;;;;3.10;99.90;;;2.60;100.00;100453.22;4926144;29;19934;-77
2022/01/10 05:42:25;;;;;;;;;;;5.50;99.90;;;2.61;100.00;100463.63;4909975;29;20021;-77
2022/01/10 05:44:52;;;;;;;;;;;3.20;99.90;;;2.59;100.00;100465.34;4910591;29;20579;-77
2022/01/10 05:47:20;;;;;;;;;;;4.60;99.90;;;2.63;100.00;100474.03;4895005;29;19980;-77
2022/01/10 05:50:00;;;;;;;;;;;3.10;99.90;;;2.62;100.00;100477.50;4928236;29;20029;-77
2022/01/10 05:52:32;;;;;;;;;;;5.10;99.90;;;2.65;100.00;100478.41;4922492;29;19931;-78
2022/01/10 05:55:02;;;;;;;;;;;3.00;99.90;;;2.64;100.00;100484.44;4901914;29;20103;-77
2022/01/10 05:57:29;;;;;;;;;;;3.60;99.90;;;2.62;100.00;100486.16;4905900;29;19941;-77
2022/01/10 05:59:56;;;;;;;;;;;6.10;99.90;;;2.56;100.00;100493.88;4934245;29;20641;-77
2022/01/10 06:02:23;;;;;;;;;;;3.30;99.90;;;2.57;100.00;100502.53;4938909;29;19930;-77
2022/01/10 06:04:50;;;;;;;;;;;2.90;99.90;;;2.48;100.00;100509.38;4933648;28;19943;-77
2022/01/10 06:07:29;;;;;;;;;;;2.70;99.90;;;2.47;100.00;100512.84;4915183;29;19941;-77
2022/01/10 06:09:56;;;;;;;;;;;3.20;99.90;;;2.44;100.00;100520.59;4913985;29;19931;-78
2022/01/10 06:12:22;;;;;;;;;;;2.90;99.90;;;2.45;100.00;100519.75;4944291;29;19931;-77
2022/01/10 06:14:50;;;;;;;;;;;3.10;99.90;;;2.47;100.00;100527.53;4932606;29;19930;-78
2022/01/10 06:17:17;;;;;;;;;;;3.00;99.90;;;2.41;100.00;100533.53;4933280;29;19931;-77
2022/01/10 06:19:44;;;;;;;;;;;4.10;99.90;;;2.37;100.00;100535.22;4948903;28;19930;-78
2022/01/10 06:22:11;;;;;;;;;;;3.50;99.90;;;2.39;100.00;100543.91;4933368;29;19931;-78
2022/01/10 06:24:39;;;;;;;;;;;2.90;99.90;;;2.38;100.00;100542.16;4932543;29;19934;-77
2022/01/10 06:27:25;;;;;;;;;;;2.80;99.90;;;2.38;100.00;100549.06;4925112;29;19937;-77
2022/01/10 06:29:53;;;;;;;;;;;3.90;99.90;;;2.33;100.00;100548.16;4934347;29;20021;-77
2022/01/10 06:32:20;;;;;;;;;;;4.30;99.90;;;2.36;100.00;100563.75;4948694;28;19949;-77
2022/01/10 06:34:47;;;;;;;;;;;2.90;99.90;;;2.36;100.00;100566.38;4933367;29;20748;-77
2022/01/10 06:37:15;;;;;;;;;;;4.50;99.90;;;2.37;100.00;100565.50;4933241;28;20434;-78
2022/01/10 06:39:48;;;;;;;;;;;5.30;99.90;;;2.39;100.00;100574.19;4934409;29;19931;-77
2022/01/10 06:42:16;;;;;;;;;;;2.80;99.90;;;2.39;100.00;100576.78;4932778;29;19935;-78
2022/01/10 06:44:43;;;;;;;;;;;3.00;99.90;;;2.39;100.00;100580.28;4932816;28;19930;-77
2022/01/10 06:47:13;;;;;;;;;;;5.50;99.90;;;2.38;100.00;100593.22;4949382;28;19930;-77
2022/01/10 06:49:40;;;;;;;;;;;3.00;99.90;;;2.36;100.00;100594.94;4949143;29;20407;-76
2022/01/10 06:52:08;;;;;;;;;;;5.20;99.90;;;2.31;100.00;100596.59;4935150;29;20653;-77
2022/01/10 06:54:42;;;;;;;;;;;2.90;99.90;;;2.20;100.00;100607.69;4931392;29;20075;-77
2022/01/10 06:57:09;;;;;;;;;;;2.90;99.90;;;2.19;100.00;100613.75;4935075;29;19930;-77
2022/01/10 06:59:37;;;;;;;;;;;2.60;99.90;;;2.17;100.00;100618.03;4934782;29;20327;-77
2022/01/10 07:02:04;;;;;;;;;;;2.90;99.90;;;2.25;100.00;100624.22;4936500;29;20455;-76
2022/01/10 07:04:32;;;;;;;;;;;2.70;99.90;;;2.29;100.00;100624.28;4934876;29;19931;-77
2022/01/10 07:07:02;;;;;;;;;;;4.00;99.90;;;2.33;100.00;100626.91;4949545;28;20012;-77
2022/01/10 07:09:33;;;;;;;;;;;2.80;99.90;;;2.31;100.00;100636.41;4930579;29;19935;-77
2022/01/10 07:12:12;;;;;;;;;;;2.90;99.90;;;2.32;100.00;100648.53;4935752;28;19930;-77
2022/01/10 07:14:49;;;;;;;;;;;2.80;99.90;;;2.32;100.00;100645.94;4965825;28;20368;-76
2022/01/10 07:17:16;;;;;;;;;;;6.40;99.90;;;2.32;100.00;100663.25;4968236;28;19962;-77
2022/01/10 07:19:46;;;;;;;;;;;2.80;99.90;;;2.30;100.00;100668.44;4951351;28;20041;-77
2022/01/10 07:22:20;;;;;;;;;;;3.00;99.90;;;2.29;100.00;100671.00;4938986;29;19957;-78
2022/01/10 07:24:47;;;;;;;;;;;2.80;99.90;;;2.25;100.00;100681.34;4945114;28;19960;-78
2022/01/10 07:27:14;;;;;;;;;;;6.00;99.90;;;2.22;100.00;100683.03;4939382;29;19938;-77
2022/01/10 07:29:40;;;;;;;;;;;2.90;99.90;;;2.21;100.00;100692.53;4939655;29;19930;-78
2022/01/10 07:32:08;;;;;;;;;;;2.30;99.90;;;2.25;100.00;100698.66;4939771;29;19954;-77
2022/01/10 07:34:36;;;;;;;;;;;3.00;99.90;;;2.20;100.00;100701.16;4953304;29;19981;-78
2022/01/10 07:37:03;;;;;;;;;;;2.10;99.90;;;2.26;100.00;100700.41;4953258;29;19930;-78
2022/01/10 07:39:30;;;;;;;;;;;3.00;99.90;;;2.29;100.00;100715.16;4951721;29;19934;-76
2022/01/10 07:41:57;;;;;;;;;;;2.70;99.90;;;2.22;100.00;100721.97;4925985;29;20041;-77
2022/01/10 07:44:36;;;;;;;;;;;2.90;99.90;;;2.18;100.00;100721.03;4928664;29;19926;-77
2022/01/10 07:47:04;;;;;;;;;;;2.90;99.90;;;2.25;100.00;100732.41;4942277;29;19930;-77
2022/01/10 07:49:31;;;;;;;;;;;2.80;99.90;;;2.22;100.00;100740.16;4942294;29;19954;-78
2022/01/10 07:51:58;;;;;;;;;;;2.80;99.90;;;2.12;100.00;100731.34;4940709;29;19926;-78
2022/01/10 07:54:25;;;;;;;;;;;4.40;99.90;;;2.17;100.00;100734.88;4988081;28;20002;-77
2022/01/10 07:56:53;;;;;;;;;;;4.10;99.90;;;2.18;100.00;100743.53;4988386;28;20329;-77
2022/01/10 07:59:22;;;;;;;;;;;4.90;99.90;;;2.20;100.00;100750.50;4971589;28;19941;-78
2022/01/10 08:01:49;;;;;;;;;;;2.70;99.90;;;2.16;100.00;100750.41;4987255;28;19937;-76
2022/01/10 08:04:17;;;;;;;;;;;3.40;99.90;;;2.15;100.00;100757.34;4972862;28;19970;-77
2022/01/10 08:06:44;;;;;;;;;;;6.00;99.90;;;2.12;100.00;100767.69;4957635;28;19969;-77
2022/01/10 08:09:11;;;;;;;;;;;2.80;99.90;;;2.00;100.00;100762.28;4981992;28;20013;-76
2022/01/10 08:11:38;;;;;;;;;;;2.70;99.90;;;2.07;100.00;100772.78;4941099;29;19930;-78
2022/01/10 08:14:05;;;;;;;;;;;2.60;99.90;;;1.98;100.00;100780.41;4972579;28;20532;-78
2022/01/10 08:16:32;;;;;;;;;;;3.70;99.90;;;1.96;100.00;100779.50;4974486;28;19930;-79
2022/01/10 08:18:59;;;;;;;;;;;5.10;99.90;;;1.97;100.00;100784.75;4983577;28;19970;-78
2022/01/10 08:21:26;;;;;;;;;;;3.50;99.90;;;1.98;100.00;100785.59;4964741;28;20242;-78
2022/01/10 08:23:53;;;;;;;;;;;5.50;99.90;;;2.03;100.00;100801.25;4981046;28;20045;-79
2022/01/10 08:26:21;;;;;;;;;;;2.50;99.90;;;1.98;100.00;100798.56;4948720;28;19941;-79
2022/01/10 08:28:48;;;;;;;;;;;2.70;99.90;;;1.97;100.00;100807.22;4948393;29;20361;-78
2022/01/10 08:31:15;;;;;;;;;;;2.70;99.90;;;1.91;100.00;100804.50;4971865;28;20025;-78
2022/01/10 08:34:03;;;;;;;;;;;3.50;99.90;;;1.94;100.00;100805.41;4929459;29;19930;-79
2022/01/10 08:36:30;;;;;;;;;;;3.00;99.90;;;1.94;100.00;100813.22;4914533;29;19927;-79
2022/01/10 08:38:57;;;;;;;;;;;2.60;99.90;;;2.01;100.00;100826.31;4897294;29;19938;-79
2022/01/10 08:41:24;;;;;;;;;;;2.50;99.90;;;2.01;100.00;100828.91;4913159;29;20428;-79
2022/01/10 08:43:51;;;;;;;;;;;2.60;99.90;;;1.98;100.00;100827.13;4930417;29;19935;-78
2022/01/10 08:46:18;;;;;;;;;;;2.40;99.90;;;1.96;100.00;100834.00;4914451;29;19935;-79
2022/01/10 08:48:49;;;;;;;;;;;2.40;99.90;;;1.94;100.00;100839.16;4913501;29;20561;-80
2022/01/10 08:51:17;;;;;;;;;;;-0.80;99.90;;;1.93;100.00;100845.19;4927716;29;19938;-80
2022/01/10 08:53:44;;;;;;;;;;;2.60;99.90;;;2.00;100.00;100840.16;4928130;29;19945;-80
2022/01/10 08:56:11;;;;;;;;;;;4.90;99.90;;;1.99;100.00;100841.84;4911716;29;19930;-80
2022/01/10 08:58:38;;;;;;;;;;;5.00;99.90;;;2.03;100.00;100840.19;4931409;29;19937;-80
2022/01/10 09:01:06;;;;;;;;;;;4.70;99.90;;;2.10;100.00;100842.03;4899937;29;19938;-80
2022/01/10 09:03:35;;;;;;;;;;;2.40;99.90;;;2.12;100.00;100848.16;4916760;29;19975;-80
2022/01/10 09:06:02;;;;;;;;;;;4.70;99.90;;;2.21;100.00;100843.13;4934789;29;19973;-80
2022/01/10 09:08:35;;;;;;;;;;;2.70;99.90;;;2.30;100.00;100858.00;4918932;29;19927;-80
2022/01/10 09:11:03;;;;;;;;;;;6.60;99.90;;;2.38;100.00;100863.31;4950985;29;19930;-80
2022/01/10 09:13:30;;;;;;;;;;;2.80;99.90;;;2.48;100.00;100870.44;4938977;29;19941;-79
2022/01/10 09:15:57;;;;;;;;;;;3.00;99.90;;;2.54;100.00;100880.06;4945988;29;19954;-79
2022/01/10 09:18:24;;;;;;;;;;;3.20;99.90;;;2.64;100.00;100886.28;4949692;28;19938;-80
2022/01/10 09:20:52;;;;;;;;;;;5.30;99.90;;;2.71;100.00;100875.13;4920747;29;19931;-79
2022/01/10 09:23:19;;;;;;;;;;;3.10;99.90;;;2.86;100.00;100894.44;4942738;28;20315;-80
2022/01/10 09:25:46;;;;;;;;;;;3.30;99.90;;;2.95;100.00;100894.59;4972303;28;20149;-79
2022/01/10 09:28:13;;;;;;;;;;;3.40;99.90;;;3.05;100.00;100896.50;4954228;28;20013;-79
2022/01/10 09:30:40;;;;;;;;;;;5.30;99.90;;;3.19;100.00;100901.88;4956070;28;19930;-79
2022/01/10 09:33:07;;;;;;;;;;;6.10;99.90;;;3.29;100.00;100899.44;4976943;28;19937;-79
2022/01/10 09:35:34;;;;;;;;;;;3.50;99.90;;;3.43;100.00;100899.63;4977973;28;19925;-79
2022/01/10 09:38:02;;;;;;;;;;;3.80;99.90;;;3.55;100.00;100911.06;4962167;28;20359;-79
2022/01/10 09:40:29;;;;;;;;;;;3.80;99.90;;;3.66;100.00;100915.53;4938679;29;19930;-79
2022/01/10 09:42:56;;;;;;;;;;;4.80;99.90;;;3.74;100.00;100913.91;4952030;29;19926;-79
2022/01/10 09:45:23;;;;;;;;;;;3.80;99.90;;;3.90;100.00;100922.78;4964051;28;19927;-80
2022/01/10 09:47:50;;;;;;;;;;;4.10;99.90;;;4.00;100.00;100920.31;4965056;28;20057;-79
2022/01/10 09:50:17;;;;;;;;;;;5.40;99.90;;;4.11;100.00;100923.91;4964914;28;19931;-78
2022/01/10 09:52:47;;;;;;;;;;;4.50;99.90;;;4.18;100.00;100912.72;4966008;28;19930;-80
2022/01/10 09:55:15;;;;;;;;;;;4.50;99.90;;;4.32;100.00;100923.25;4980886;28;19935;-79
2022/01/10 09:57:42;;;;;;;;;;;4.60;99.90;;;4.43;100.00;100925.97;4965700;28;19937;-78
2022/01/10 10:00:10;;;;;;;;;;;6.50;99.90;;;4.49;100.00;100927.78;4980885;28;20240;-79
2022/01/10 10:02:38;;;;;;;;;;;4.80;99.90;;;4.56;100.00;100934.81;4981684;28;19931;-80
2022/01/10 10:05:09;;;;;;;;;;;5.50;99.90;;;4.52;100.00;100933.91;4968160;28;20295;-77
2022/01/10 10:07:38;;;;;;;;;;;4.90;99.90;;;4.59;100.00;100939.16;4958420;28;19930;-78
2022/01/10 10:10:11;;;;;;;;;;;4.70;99.90;;;4.62;100.00;100931.41;4961233;28;19962;-78
2022/01/10 10:12:40;;;;;;;;;;;4.80;99.90;;;4.65;100.00;100947.06;4938294;28;20393;-78
2022/01/10 10:15:10;;;;;;;;;;;5.10;99.90;;;4.59;100.00;100939.16;4942542;29;20076;-78
2022/01/10 10:17:41;;;;;;;;;;;5.10;99.90;;;4.73;100.00;100953.22;4952452;29;20033;-78
2022/01/10 10:20:10;;;;;;;;;;;5.50;99.90;;;4.76;100.00;100957.59;4919128;28;19937;-78
2022/01/10 10:23:02;;;;;;;;;;;5.10;99.90;;;4.74;100.00;100951.50;4919437;28;19935;-77
2022/01/10 10:26:06;;;;;;;;;;;5.80;99.90;;;4.68;100.00;100953.19;4926094;28;19927;-78
2022/01/10 10:28:42;;;;;;;;;;;5.20;99.90;;;4.68;100.00;100952.31;4946780;28;19938;-77
2022/01/10 10:31:43;;;;;;;;;;;5.20;99.90;;;4.77;100.00;100964.56;5000526;28;20028;-77
2022/01/10 10:34:20;;;;;;;;;;;8.50;99.90;;;4.83;100.00;100967.19;5003246;28;19968;-77
2022/01/10 10:37:02;;;;;;;;;;;5.10;99.90;;;4.75;100.00;100969.72;5016254;28;19936;-78
2022/01/10 10:39:31;;;;;;;;;;;8.70;99.90;;;4.73;100.00;100966.25;5016547;28;20003;-77
2022/01/10 10:42:00;;;;;;;;;;;5.50;99.90;;;4.85;100.00;100962.00;5029007;28;20317;-78
2022/01/10 10:44:31;;;;;;;;;;;5.10;99.90;;;4.88;100.00;100975.97;5011710;28;19968;-77
2022/01/10 10:46:58;;;;;;;;;;;5.20;99.90;;;4.92;100.00;100977.72;5011569;28;19929;-77
2022/01/10 10:49:46;;;;;;;;;;;5.20;99.90;;;4.91;100.00;100977.69;5027338;28;19928;-78
2022/01/10 10:52:13;;;;;;;;;;;5.90;99.90;;;4.91;100.00;100982.91;5010201;28;19983;-78
2022/01/10 10:54:41;;;;;;;;;;;8.20;99.90;;;4.92;100.00;100984.69;5003403;28;19933;-78
2022/01/10 10:57:10;;;;;;;;;;;5.40;99.90;;;4.97;100.00;100988.22;4989243;28;19980;-77
2022/01/10 10:59:43;;;;;;;;;;;8.30;99.90;;;4.97;100.00;100996.03;5008994;28;19960;-78
2022/01/10 11:02:11;;;;;;;;;;;7.00;99.90;;;5.00;100.00;100993.44;5043110;28;20493;-76
2022/01/10 11:04:41;;;;;;;;;;;5.60;99.90;;;5.04;100.00;100991.75;4995574;28;19929;-78
2022/01/10 11:07:09;;;;;;;;;;;5.60;99.90;;;5.13;100.00;100998.78;5029516;28;19935;-78
2022/01/10 11:09:56;;;;;;;;;;;5.30;99.90;;;5.16;100.00;101006.63;5027657;28;20019;-79
2022/01/10 11:12:24;;;;;;;;;;;5.30;99.90;;;5.15;100.00;101010.09;4993335;28;19936;-78
2022/01/10 11:14:52;;;;;;;;;;;5.60;99.90;;;5.23;100.00;101008.44;5008764;28;19929;-78
2022/01/10 11:17:20;;;;;;;;;;;6.80;99.90;;;5.36;100.00;101015.47;5009290;28;20012;-78
2022/01/10 11:20:17;;;;;;;;;;;5.60;99.90;;;5.43;100.00;101023.38;4992825;28;19935;-77
2022/01/10 11:22:50;;;;;;;;;;;5.60;99.90;;;5.35;100.00;101018.09;4952795;28;19930;-79
2022/01/10 11:25:24;;;;;;;;;;;5.70;99.90;;;5.45;100.00;101021.66;4946383;29;20582;-78
2022/01/10 11:27:53;;;;;;;;;;;5.60;99.90;;;5.49;100.00;101037.34;4938938;28;19937;-78
2022/01/10 11:30:28;;;;;;;;;;;5.90;99.90;;;5.61;100.00;101035.66;4954736;28;19935;-78
2022/01/10 11:33:04;;;;;;;;;;;5.70;99.90;;;5.52;100.00;101036.47;4942973;29;19931;-78
2022/01/10 11:35:57;;;;;;;;;;;5.80;99.90;;;5.47;100.00;101043.41;4947354;28;19930;-78
2022/01/10 11:38:37;;;;;;;;;;;5.80;99.90;;;5.59;100.00;101042.63;4942340;29;20043;-79
2022/01/10 11:41:09;;;;;;;;;;;6.30;99.90;;;5.56;100.00;101046.09;4945119;29;19930;-78